Time;durP1;ratioP1;P1;durP2;ratioP2;P2;SDS_P1;SDS_P2;PMS_P1;PMS_P2;Temp;Humidity;BMP_temperature;BMP_pressure;BME280_temperature;BME280_humidity;BME280_pressure;Samples;Min_cycle;Max_cycle;Signal;HPM_P1;HPM_P2
2021/06/08 00:02:12;;;;;;;19.30;12.60;;;17.60;99.90;;;;;;5046354;28;20210;-72
2021/06/08 00:04:38;;;;;;;17.50;11.10;;;17.60;99.90;;;;;;5051718;28;20195;-71
2021/06/08 00:07:03;;;;;;;15.53;10.80;;;17.60;99.90;;;;;;5033469;28;20175;-72
2021/06/08 00:09:29;;;;;;;19.37;11.20;;;17.60;99.90;;;;;;5050626;28;20175;-72
2021/06/08 00:11:55;;;;;;;20.10;12.73;;;17.60;99.90;;;;;;5057497;28;20804;-71
2021/06/08 00:14:21;;;;;;;19.87;11.53;;;17.60;99.90;;;;;;5041062;28;20251;-73
2021/06/08 00:16:46;;;;;;;18.70;13.47;;;17.70;99.90;;;;;;5042022;28;20541;-71
2021/06/08 00:19:12;;;;;;;18.93;11.50;;;17.60;99.90;;;;;;5038203;28;20517;-71
2021/06/08 00:21:38;;;;;;;22.43;14.10;;;17.60;99.90;;;;;;5037367;28;20182;-71
2021/06/08 00:24:04;;;;;;;25.10;14.47;;;17.60;99.90;;;;;;5050703;28;20424;-69
2021/06/08 00:26:30;;;;;;;21.40;12.93;;;17.60;99.90;;;;;;5056899;28;20177;-71
2021/06/08 00:28:55;;;;;;;21.40;13.00;;;17.50;99.90;;;;;;5053501;28;20424;-70
2021/06/08 00:31:21;;;;;;;18.37;13.00;;;17.50;99.90;;;;;;5051154;28;20176;-71
2021/06/08 00:33:47;;;;;;;19.03;11.10;;;17.50;99.90;;;;;;5036442;28;20237;-70
2021/06/08 00:36:14;;;;;;;19.40;12.03;;;17.50;99.90;;;;;;5046758;28;20192;-70
2021/06/08 00:38:40;;;;;;;21.10;12.73;;;17.50;99.90;;;;;;5042551;28;20951;-70
2021/06/08 00:41:06;;;;;;;21.00;14.93;;;17.50;99.90;;;;;;5036973;28;20736;-70
2021/06/08 00:43:32;;;;;;;19.00;13.47;;;17.50;99.90;;;;;;5040928;28;20427;-72
2021/06/08 00:45:57;;;;;;;22.30;14.20;;;17.50;99.90;;;;;;5056737;28;20183;-70
2021/06/08 00:48:23;;;;;;;18.47;11.63;;;17.50;99.90;;;;;;5054841;28;20183;-70
2021/06/08 00:50:50;;;;;;;19.67;13.47;;;17.50;99.90;;;;;;5056575;28;20177;-70
2021/06/08 00:53:16;;;;;;;21.03;13.77;;;17.50;99.90;;;;;;5047574;28;20780;-71
2021/06/08 00:55:42;;;;;;;26.63;15.13;;;17.50;99.90;;;;;;5045951;28;20851;-71
2021/06/08 00:58:07;;;;;;;19.70;12.30;;;17.40;99.90;;;;;;5049707;28;20444;-72
2021/06/08 01:00:33;;;;;;;19.70;11.23;;;17.40;99.90;;;;;;5036384;28;20416;-71
2021/06/08 01:02:59;;;;;;;23.20;13.37;;;17.40;99.90;;;;;;5051355;28;20205;-74
2021/06/08 01:05:25;;;;;;;21.40;14.20;;;17.40;99.90;;;;;;5054118;28;20892;-70
2021/06/08 01:07:51;;;;;;;20.37;13.10;;;17.40;99.90;;;;;;5047419;28;20170;-71
2021/06/08 01:10:17;;;;;;;18.73;12.87;;;17.40;99.90;;;;;;5054805;28;20417;-70
2021/06/08 01:12:43;;;;;;;20.90;13.80;;;17.40;99.90;;;;;;5035770;28;20422;-72
2021/06/08 01:15:09;;;;;;;18.40;13.17;;;17.40;99.90;;;;;;5040250;28;20442;-70
2021/06/08 01:17:35;;;;;;;20.03;12.33;;;17.40;99.90;;;;;;5054760;28;20178;-70
2021/06/08 01:20:02;;;;;;;17.73;11.90;;;17.40;99.90;;;;;;5052467;28;20429;-70
2021/06/08 01:22:29;;;;;;;18.83;12.97;;;17.40;99.90;;;;;;5035797;28;20198;-70
2021/06/08 01:24:55;;;;;;;19.97;13.13;;;17.40;99.90;;;;;;5035685;28;20404;-71
2021/06/08 01:27:22;;;;;;;19.07;12.50;;;17.40;99.90;;;;;;5034744;28;20421;-70
2021/06/08 01:29:50;;;;;;;24.00;14.33;;;17.40;99.90;;;;;;5054366;28;20416;-72
2021/06/08 01:32:17;;;;;;;19.50;11.73;;;17.40;99.90;;;;;;5051701;28;20454;-71
2021/06/08 01:34:44;;;;;;;15.87;11.00;;;17.30;99.90;;;;;;5054757;28;20486;-72
2021/06/08 01:37:10;;;;;;;20.43;12.93;;;17.30;99.90;;;;;;5035886;28;20408;-71
2021/06/08 01:39:37;;;;;;;24.10;13.70;;;17.30;99.90;;;;;;5045735;28;20429;-71
2021/06/08 01:42:04;;;;;;;16.53;11.00;;;17.30;99.90;;;;;;5035614;28;20488;-71
2021/06/08 01:44:30;;;;;;;19.70;12.67;;;17.30;99.90;;;;;;5036268;28;20437;-72
2021/06/08 01:46:56;;;;;;;24.00;15.03;;;17.30;99.90;;;;;;5035589;28;20417;-71
2021/06/08 01:49:22;;;;;;;24.83;13.27;;;17.20;99.90;;;;;;5053719;28;20420;-71
2021/06/08 01:52:00;;;;;;;23.43;14.07;;;17.20;99.90;;;;;;5055544;28;20169;-72
2021/06/08 01:54:44;;;;;;;20.20;12.80;;;17.20;99.90;;;;;;5043016;28;20440;-73
2021/06/08 01:57:22;;;;;;;25.10;13.63;;;17.20;99.90;;;;;;5038171;28;20529;-70
2021/06/08 02:00:05;;;;;;;23.00;14.27;;;17.20;99.90;;;;;;5035668;28;20425;-73
2021/06/08 02:03:00;;;;;;;19.30;12.07;;;17.20;99.90;;;;;;5042076;28;20457;-70
2021/06/08 02:05:43;;;;;;;21.63;14.33;;;17.20;99.90;;;;;;5052340;28;20447;-71
2021/06/08 02:08:35;;;;;;;18.70;11.90;;;17.20;99.90;;;;;;5049707;28;20408;-73
2021/06/08 02:11:13;;;;;;;24.93;14.33;;;17.20;99.90;;;;;;5053900;28;20408;-73
2021/06/08 02:13:57;;;;;;;26.67;15.77;;;17.20;99.90;;;;;;5053922;28;20451;-71
2021/06/08 02:16:30;;;;;;;18.43;12.97;;;17.20;99.90;;;;;;5042037;28;20856;-72
2021/06/08 02:18:56;;;;;;;22.87;13.87;;;17.20;99.90;;;;;;5047103;28;20416;-71
2021/06/08 02:21:28;;;;;;;21.53;11.67;;;17.20;99.90;;;;;;5054122;28;20416;-72
2021/06/08 02:23:55;;;;;;;29.00;14.73;;;17.20;99.90;;;;;;5042225;28;20811;-71
2021/06/08 02:26:24;;;;;;;23.73;13.90;;;17.20;99.90;;;;;;5034800;28;20761;-71
2021/06/08 02:28:51;;;;;;;22.47;12.57;;;17.20;99.90;;;;;;5045981;28;20945;-72
2021/06/08 02:31:23;;;;;;;23.90;13.80;;;17.20;99.90;;;;;;5054664;28;20399;-71
2021/06/08 02:33:51;;;;;;;18.87;12.20;;;17.20;99.90;;;;;;5036309;28;20936;-70
2021/06/08 02:36:17;;;;;;;23.70;14.43;;;17.20;99.90;;;;;;5040949;28;20428;-72
2021/06/08 02:38:45;;;;;;;15.53;11.40;;;17.30;99.90;;;;;;5035923;28;20422;-71
2021/06/08 02:41:12;;;;;;;20.27;11.43;;;17.30;99.90;;;;;;5034543;28;20507;-72
2021/06/08 02:43:40;;;;;;;21.60;13.13;;;17.30;99.90;;;;;;5047428;28;20525;-72
2021/06/08 02:46:08;;;;;;;19.20;11.87;;;17.30;99.90;;;;;;5054291;28;20423;-71
2021/06/08 02:48:36;;;;;;;21.53;13.20;;;17.30;99.90;;;;;;5040914;28;20421;-72
2021/06/08 02:51:03;;;;;;;19.83;12.67;;;17.30;99.90;;;;;;5040071;28;20838;-72
2021/06/08 02:53:29;;;;;;;22.30;14.30;;;17.30;99.90;;;;;;5045100;28;20394;-71
2021/06/08 02:55:55;;;;;;;21.33;13.03;;;17.30;99.90;;;;;;5049695;28;20936;-71
2021/06/08 02:58:22;;;;;;;22.33;13.80;;;17.30;99.90;;;;;;5033828;28;20437;-75
2021/06/08 03:00:49;;;;;;;26.60;14.10;;;17.30;99.90;;;;;;5036269;28;20586;-70
2021/06/08 03:03:21;;;;;;;23.20;14.47;;;17.20;99.90;;;;;;5047872;28;20894;-73
2021/06/08 03:05:53;;;;;;;23.67;14.50;;;17.30;99.90;;;;;;5039416;28;20800;-71
2021/06/08 03:08:29;;;;;;;19.23;14.43;;;17.30;99.90;;;;;;5034140;28;20413;-72
2021/06/08 03:10:58;;;;;;;19.30;12.80;;;17.20;99.90;;;;;;5046802;28;20423;-72
2021/06/08 03:13:25;;;;;;;22.43;13.97;;;17.20;99.90;;;;;;5053522;28;20418;-74
2021/06/08 03:15:57;;;;;;;21.43;12.97;;;17.20;99.90;;;;;;5041145;28;20445;-71
2021/06/08 03:18:27;;;;;;;28.50;14.50;;;17.20;99.90;;;;;;5033944;28;20429;-72
2021/06/08 03:21:04;;;;;;;20.07;10.63;;;17.20;99.90;;;;;;5037394;28;20429;-71
2021/06/08 03:23:40;;;;;;;20.00;12.33;;;17.20;99.90;;;;;;5034468;28;21037;-72
2021/06/08 03:26:08;;;;;;;21.87;12.00;;;17.20;99.90;;;;;;5033695;28;20428;-71
2021/06/08 03:28:36;;;;;;;13.50;11.07;;;17.20;99.90;;;;;;5035528;28;20748;-71
2021/06/08 03:31:03;;;;;;;17.90;11.30;;;17.30;99.90;;;;;;5033675;28;20431;-70
2021/06/08 03:33:30;;;;;;;15.40;10.53;;;17.30;99.90;;;;;;5043902;28;20423;-71
2021/06/08 03:35:57;;;;;;;22.10;13.17;;;17.30;99.90;;;;;;5051803;28;20496;-71
2021/06/08 03:38:24;;;;;;;22.90;14.20;;;17.20;99.90;;;;;;5033602;28;20405;-71
2021/06/08 03:40:51;;;;;;;20.53;12.63;;;17.30;99.90;;;;;;5033574;28;20431;-71
2021/06/08 03:43:18;;;;;;;20.03;13.57;;;17.20;99.90;;;;;;5041140;28;20471;-72
2021/06/08 03:45:48;;;;;;;22.57;13.73;;;17.20;99.90;;;;;;5046663;28;20447;-71
2021/06/08 03:48:15;;;;;;;21.67;13.47;;;17.20;99.90;;;;;;5053251;28;20415;-73
2021/06/08 03:50:42;;;;;;;26.57;14.10;;;17.20;99.90;;;;;;5039864;28;20478;-71
2021/06/08 03:53:07;;;;;;;21.10;13.80;;;17.20;99.90;;;;;;5038188;28;20453;-72
2021/06/08 03:55:33;;;;;;;23.63;13.00;;;17.20;99.90;;;;;;5053034;28;20510;-71
2021/06/08 03:58:00;;;;;;;23.47;13.50;;;17.10;99.90;;;;;;5042109;28;20215;-72
2021/06/08 04:00:26;;;;;;;21.50;13.37;;;17.10;99.90;;;;;;5049287;28;20185;-72
2021/06/08 04:02:52;;;;;;;18.50;12.80;;;17.10;99.90;;;;;;5043369;28;20453;-71
2021/06/08 04:05:19;;;;;;;22.87;13.43;;;17.20;99.90;;;;;;5033119;28;20441;-71
2021/06/08 04:07:47;;;;;;;19.13;12.13;;;17.20;99.90;;;;;;5040272;28;20424;-73
2021/06/08 04:10:20;;;;;;;23.67;13.80;;;17.20;99.90;;;;;;5038750;28;20455;-71
2021/06/08 04:12:46;;;;;;;24.67;13.53;;;17.20;99.90;;;;;;5045501;28;20424;-71
2021/06/08 04:15:13;;;;;;;22.00;12.73;;;17.20;99.90;;;;;;5033035;28;20491;-71
2021/06/08 04:17:39;;;;;;;23.53;15.00;;;17.30;99.90;;;;;;5047212;28;20428;-71
2021/06/08 04:20:07;;;;;;;24.23;13.20;;;17.30;99.90;;;;;;5033263;28;20420;-71
2021/06/08 04:22:34;;;;;;;22.40;14.63;;;17.30;99.90;;;;;;5035427;28;20203;-70
2021/06/08 04:25:01;;;;;;;20.33;12.30;;;17.30;99.90;;;;;;5032619;28;20495;-71
2021/06/08 04:27:28;;;;;;;16.73;11.30;;;17.30;99.90;;;;;;5045340;28;20774;-71
2021/06/08 04:29:54;;;;;;;21.33;12.87;;;17.40;99.90;;;;;;5046013;28;20927;-71
2021/06/08 04:32:21;;;;;;;22.03;13.30;;;17.30;99.90;;;;;;5034064;28;20432;-70
2021/06/08 04:34:51;;;;;;;23.23;15.10;;;17.30;99.90;;;;;;5032112;28;20456;-73
2021/06/08 04:37:17;;;;;;;20.53;13.93;;;17.30;99.90;;;;;;5035201;28;20413;-70
2021/06/08 04:39:43;;;;;;;21.67;14.93;;;17.40;99.90;;;;;;5052551;28;20793;-72
2021/06/08 04:42:10;;;;;;;19.23;12.87;;;17.40;99.90;;;;;;5049859;28;20464;-71
2021/06/08 04:44:36;;;;;;;22.67;14.40;;;17.40;99.90;;;;;;5032221;28;20446;-72
2021/06/08 04:47:02;;;;;;;20.00;13.17;;;17.40;99.90;;;;;;5050981;28;20439;-71
2021/06/08 04:49:28;;;;;;;20.60;12.37;;;17.50;99.90;;;;;;5051552;28;20182;-71
2021/06/08 04:51:55;;;;;;;22.20;13.80;;;17.50;99.90;;;;;;5052602;28;20406;-71
2021/06/08 04:54:24;;;;;;;20.30;12.60;;;17.50;99.90;;;;;;5034759;28;20261;-70
2021/06/08 04:56:51;;;;;;;19.60;12.73;;;17.50;99.90;;;;;;5033837;28;20505;-70
2021/06/08 04:59:51;;;;;;;20.10;11.93;;;17.50;99.90;;;;;;5054267;28;20535;-70
2021/06/08 05:02:31;;;;;;;16.60;10.53;;;17.50;99.90;;;;;;5054600;28;20480;-71
2021/06/08 05:05:07;;;;;;;19.23;12.43;;;17.50;99.90;;;;;;5055553;28;20946;-71
2021/06/08 05:07:37;;;;;;;21.87;14.00;;;17.50;99.90;;;;;;5050191;28;20422;-71
2021/06/08 05:10:06;;;;;;;24.23;14.60;;;17.50;99.90;;;;;;5036330;28;20428;-71
2021/06/08 05:12:33;;;;;;;22.70;14.17;;;17.50;99.90;;;;;;5039767;28;20463;-70
2021/06/08 05:15:01;;;;;;;19.80;12.67;;;17.50;99.90;;;;;;5048856;28;20445;-73
2021/06/08 05:17:27;;;;;;;18.07;12.43;;;17.50;99.90;;;;;;5036114;28;20923;-70
2021/06/08 05:19:54;;;;;;;21.27;13.00;;;17.50;99.90;;;;;;5036021;28;20419;-71
2021/06/08 05:22:21;;;;;;;18.30;13.00;;;17.50;99.90;;;;;;5035889;28;20453;-70
2021/06/08 05:24:50;;;;;;;21.53;12.80;;;17.50;99.90;;;;;;5053902;28;20444;-72
2021/06/08 05:27:16;;;;;;;22.10;15.27;;;17.50;99.90;;;;;;5055581;28;20429;-71
2021/06/08 05:29:42;;;;;;;20.10;12.97;;;17.60;99.90;;;;;;5055421;28;20522;-70
2021/06/08 05:32:08;;;;;;;19.90;13.30;;;17.60;99.90;;;;;;5050715;28;20428;-69
2021/06/08 05:34:34;;;;;;;22.30;14.20;;;17.70;99.90;;;;;;5035223;28;20442;-71
2021/06/08 05:37:10;;;;;;;15.93;11.60;;;17.70;99.90;;;;;;5039444;28;20177;-71
2021/06/08 05:39:37;;;;;;;24.50;14.50;;;17.70;99.90;;;;;;5054364;28;20217;-70
2021/06/08 05:42:08;;;;;;;19.40;12.13;;;17.70;99.90;;;;;;5052537;28;20444;-72
2021/06/08 05:44:34;;;;;;;20.60;13.10;;;17.80;99.90;;;;;;5037103;28;20809;-71
2021/06/08 05:47:05;;;;;;;28.67;14.93;;;17.80;99.90;;;;;;5052302;28;20418;-72
2021/06/08 05:49:36;;;;;;;20.30;12.50;;;17.80;99.90;;;;;;5037535;28;20779;-71
2021/06/08 05:52:03;;;;;;;23.50;11.93;;;17.80;99.90;;;;;;5035338;28;20763;-70
2021/06/08 05:54:30;;;;;;;18.20;12.67;;;17.80;99.90;;;;;;5051644;28;20463;-69
2021/06/08 05:56:57;;;;;;;17.23;11.80;;;17.80;99.90;;;;;;5041700;28;20732;-71
2021/06/08 05:59:24;;;;;;;21.60;13.07;;;17.80;99.90;;;;;;5036890;28;20422;-70
2021/06/08 06:01:50;;;;;;;19.70;13.03;;;17.80;99.90;;;;;;5048857;28;20521;-71
2021/06/08 06:04:17;;;;;;;22.63;14.10;;;17.80;99.90;;;;;;5044217;28;20539;-71
2021/06/08 06:06:46;;;;;;;18.60;13.20;;;17.80;99.90;;;;;;5034957;28;20915;-70
2021/06/08 06:09:12;;;;;;;18.20;12.30;;;17.80;99.90;;;;;;5041976;28;20415;-68
2021/06/08 06:11:40;;;;;;;18.77;12.43;;;17.80;99.90;;;;;;5042617;28;20429;-68
2021/06/08 06:14:07;;;;;;;17.33;12.17;;;17.80;99.90;;;;;;5040017;28;20507;-69
2021/06/08 06:16:37;;;;;;;16.57;12.10;;;17.90;99.90;;;;;;5040357;28;20844;-67
2021/06/08 06:19:06;;;;;;;19.60;12.97;;;17.90;99.90;;;;;;5034017;28;20445;-68
2021/06/08 06:21:33;;;;;;;19.53;12.03;;;17.90;99.90;;;;;;5050509;28;20421;-69
2021/06/08 06:24:00;;;;;;;16.70;11.77;;;17.90;99.90;;;;;;5046177;28;20504;-68
2021/06/08 06:26:27;;;;;;;18.43;11.50;;;18.00;99.90;;;;;;5053845;28;20947;-68
2021/06/08 06:28:54;;;;;;;19.67;12.67;;;18.00;99.90;;;;;;5052563;28;20423;-68
2021/06/08 06:31:20;;;;;;;18.20;12.90;;;18.10;99.90;;;;;;5054357;28;20898;-69
2021/06/08 06:33:52;;;;;;;18.03;12.37;;;18.10;99.90;;;;;;5053296;28;20447;-69
2021/06/08 06:36:18;;;;;;;17.10;12.40;;;18.20;99.90;;;;;;5046228;28;20463;-69
2021/06/08 06:38:50;;;;;;;14.30;9.93;;;18.30;99.90;;;;;;5039761;28;20451;-71
2021/06/08 06:41:17;;;;;;;14.70;11.70;;;18.40;99.90;;;;;;5054104;28;20802;-69
2021/06/08 06:43:52;;;;;;;22.77;12.90;;;18.50;99.90;;;;;;5053123;28;20456;-70
2021/06/08 06:46:18;;;;;;;15.57;11.00;;;18.50;99.90;;;;;;5053543;28;20740;-69
2021/06/08 06:48:46;;;;;;;18.00;13.03;;;18.60;99.90;;;;;;5052451;28;20426;-74
2021/06/08 06:51:13;;;;;;;19.17;10.53;;;18.50;99.90;;;;;;5052409;28;20429;-72
2021/06/08 06:53:40;;;;;;;15.00;10.50;;;18.50;99.90;;;;;;5042893;28;20426;-72
2021/06/08 06:56:06;;;;;;;20.30;11.40;;;18.50;99.90;;;;;;5036319;28;20486;-71
2021/06/08 06:58:33;;;;;;;16.30;11.53;;;18.50;99.90;;;;;;5051822;28;20851;-71
2021/06/08 07:00:59;;;;;;;15.50;10.70;;;18.50;99.90;;;;;;5053942;28;20489;-69
2021/06/08 07:03:30;;;;;;;16.87;10.63;;;18.60;99.90;;;;;;5038730;28;20457;-70
2021/06/08 07:05:56;;;;;;;16.20;9.77;;;18.60;99.90;;;;;;5034083;28;20441;-69
2021/06/08 07:08:50;;;;;;;21.97;13.87;;;18.80;99.90;;;;;;4994961;28;20467;-71
2021/06/08 07:11:16;;;;;;;17.70;10.57;;;18.80;99.90;;;;;;5053726;28;20401;-72
2021/06/08 07:13:43;;;;;;;14.40;9.77;;;18.80;99.90;;;;;;5037988;28;20428;-70
2021/06/08 07:16:10;;;;;;;17.23;11.10;;;18.80;99.90;;;;;;5034991;28;20874;-68
2021/06/08 07:18:36;;;;;;;17.37;11.27;;;18.90;99.90;;;;;;5043996;28;20430;-68
2021/06/08 07:21:04;;;;;;;21.80;11.37;;;19.00;99.90;;;;;;5052753;28;20423;-67
2021/06/08 07:23:31;;;;;;;17.83;9.27;;;19.00;99.90;;;;;;5052645;28;20522;-67
2021/06/08 07:25:56;;;;;;;20.93;11.60;;;19.10;99.90;;;;;;5051353;28;20538;-67
2021/06/08 07:28:23;;;;;;;20.77;11.10;;;19.20;99.90;;;;;;5051212;28;20521;-67
2021/06/08 07:30:50;;;;;;;17.27;10.37;;;19.20;99.90;;;;;;5035189;28;20536;-69
2021/06/08 07:33:38;;;;;;;17.73;9.07;;;19.20;99.90;;;;;;5050010;28;20481;-69
2021/06/08 07:36:20;;;;;;;18.90;10.17;;;19.20;99.90;;;;;;5044341;28;20451;-75
2021/06/08 07:38:59;;;;;;;16.87;10.17;;;19.10;99.90;;;;;;5033518;28;20418;-69
2021/06/08 07:41:47;;;;;;;23.17;11.27;;;19.00;99.90;;;;;;5044501;28;20462;-68
2021/06/08 07:44:24;;;;;;;23.40;12.47;;;19.10;99.90;;;;;;5070849;28;20463;-67
2021/06/08 07:46:51;;;;;;;21.10;10.93;;;19.10;99.90;;;;;;5053179;28;20439;-67
2021/06/08 07:49:20;;;;;;;18.00;10.30;;;19.10;99.90;;;;;;5051714;28;20454;-67
2021/06/08 07:51:46;;;;;;;15.40;8.93;;;19.10;99.90;;;;;;5052737;28;20411;-66
2021/06/08 07:54:12;;;;;;;20.23;12.13;;;19.10;99.90;;;;;;5051185;28;20814;-67
2021/06/08 07:56:38;;;;;;;19.03;11.27;;;19.10;99.90;;;;;;5052688;28;20412;-67
2021/06/08 07:59:04;;;;;;;21.60;11.60;;;19.10;99.90;;;;;;5041539;28;20526;-66
2021/06/08 08:01:30;;;;;;;17.00;10.37;;;19.20;99.90;;;;;;5061817;28;20440;-65
2021/06/08 08:03:56;;;;;;;20.33;11.50;;;19.20;99.90;;;;;;5059439;28;20432;-66
2021/06/08 08:06:23;;;;;;;18.00;10.53;;;19.30;99.90;;;;;;5050886;28;20219;-66
2021/06/08 08:08:50;;;;;;;21.13;11.00;;;19.30;99.90;;;;;;5047011;28;20494;-67
2021/06/08 08:11:18;;;;;;;19.97;10.97;;;19.30;99.90;;;;;;5051195;28;20432;-66
2021/06/08 08:13:51;;;;;;;20.23;11.10;;;19.40;99.90;;;;;;5051794;28;20463;-67
2021/06/08 08:16:18;;;;;;;18.87;10.70;;;19.50;99.90;;;;;;5050728;28;20904;-66
2021/06/08 08:18:44;;;;;;;18.90;10.97;;;19.60;99.90;;;;;;5047584;28;21024;-66
2021/06/08 08:21:13;;;;;;;18.27;9.67;;;19.70;99.90;;;;;;5049629;28;20511;-67
2021/06/08 08:23:40;;;;;;;18.77;10.83;;;19.90;99.90;;;;;;5052162;28;20505;-66
2021/06/08 08:26:09;;;;;;;19.07;10.20;;;20.10;99.90;;;;;;5071659;28;20434;-66
2021/06/08 08:28:37;;;;;;;21.67;12.17;;;20.40;99.90;;;;;;5052125;28;20414;-66
2021/06/08 08:31:06;;;;;;;20.77;11.23;;;20.50;99.90;;;;;;5052986;28;20914;-67
2021/06/08 08:33:32;;;;;;;18.87;11.17;;;20.60;99.90;;;;;;5055518;28;20466;-67
2021/06/08 08:35:59;;;;;;;20.10;12.50;;;20.70;99.90;;;;;;5056690;28;21060;-66
2021/06/08 08:38:30;;;;;;;19.73;11.00;;;20.80;99.90;;;;;;5053575;28;20462;-66
2021/06/08 08:40:58;;;;;;;20.53;11.73;;;20.90;99.90;;;;;;5054963;28;20462;-66
2021/06/08 08:43:25;;;;;;;21.33;13.50;;;21.10;99.90;;;;;;5051836;28;21014;-67
2021/06/08 08:45:51;;;;;;;19.07;12.40;;;21.10;99.90;;;;;;5038753;28;20476;-66
2021/06/08 08:48:20;;;;;;;18.80;12.33;;;21.10;99.90;;;;;;5050741;28;20453;-67
2021/06/08 08:50:47;;;;;;;22.87;11.77;;;21.10;99.90;;;;;;5055267;28;20407;-67
2021/06/08 08:53:16;;;;;;;19.23;12.80;;;21.20;99.90;;;;;;5046268;28;20512;-66
2021/06/08 08:55:45;;;;;;;17.90;11.23;;;21.40;99.90;;;;;;5037520;28;20450;-67
2021/06/08 08:58:11;;;;;;;18.53;10.80;;;21.60;99.90;;;;;;5050158;28;20411;-67
2021/06/08 09:00:37;;;;;;;19.30;11.40;;;21.80;99.90;;;;;;5052679;28;20431;-67
2021/06/08 09:03:05;;;;;;;21.00;11.60;;;22.00;99.90;;;;;;5050271;28;20451;-66
2021/06/08 09:05:35;;;;;;;19.20;11.50;;;22.10;99.90;;;;;;5053729;28;20188;-67
2021/06/08 09:08:02;;;;;;;23.73;13.80;;;22.20;99.90;;;;;;5056211;28;20474;-67
2021/06/08 09:10:28;;;;;;;21.40;12.60;;;22.20;99.90;;;;;;5036702;28;20446;-73
2021/06/08 09:12:54;;;;;;;17.37;10.33;;;22.30;99.90;;;;;;5038318;28;20435;-68
2021/06/08 09:15:19;;;;;;;21.13;13.87;;;22.30;99.90;;;;;;5054731;28;20513;-67
2021/06/08 09:17:45;;;;;;;19.10;12.77;;;22.40;99.90;;;;;;5056013;28;20174;-66
2021/06/08 09:20:13;;;;;;;18.37;11.40;;;22.40;99.90;;;;;;5044272;28;20244;-66
2021/06/08 09:23:03;;;;;;;16.50;10.90;;;22.50;99.90;;;;;;5050683;28;20670;-67
2021/06/08 09:25:38;;;;;;;18.03;11.33;;;22.50;99.90;;;;;;5035829;28;20443;-66
2021/06/08 09:28:36;;;;;;;17.80;11.90;;;22.60;99.90;;;;;;5052915;28;20423;-66
2021/06/08 09:31:11;;;;;;;21.83;13.57;;;22.80;99.90;;;;;;5051104;28;20406;-67
2021/06/08 09:33:48;;;;;;;19.70;12.93;;;22.90;99.90;;;;;;5052531;28;20377;-68
2021/06/08 09:36:18;;;;;;;16.90;11.17;;;23.00;99.90;;;;;;5044691;28;20393;-67
2021/06/08 09:38:51;;;;;;;20.73;12.53;;;23.00;99.90;;;;;;5044330;28;20760;-67
2021/06/08 09:41:19;;;;;;;19.87;13.10;;;23.00;99.90;;;;;;5046238;28;20410;-68
2021/06/08 09:43:56;;;;;;;23.37;12.60;;;23.00;99.90;;;;;;5045080;28;20565;-67
2021/06/08 09:46:25;;;;;;;18.67;11.63;;;22.90;99.90;;;;;;5045614;28;20441;-67
2021/06/08 09:48:54;;;;;;;18.63;12.07;;;22.90;99.90;;;;;;5041365;28;20815;-66
2021/06/08 09:51:21;;;;;;;16.53;10.90;;;22.80;99.90;;;;;;5048029;28;20417;-69
2021/06/08 09:53:47;;;;;;;17.57;12.00;;;22.80;99.90;;;;;;5041749;28;20436;-68
2021/06/08 09:56:14;;;;;;;21.10;12.57;;;22.70;99.90;;;;;;5037842;28;20931;-68
2021/06/08 09:58:45;;;;;;;19.50;11.90;;;22.60;99.90;;;;;;5065522;28;20586;-71
2021/06/08 10:01:19;;;;;;;18.03;11.90;;;22.60;99.90;;;;;;5067183;28;20540;-69
2021/06/08 10:03:51;;;;;;;19.77;13.43;;;22.80;99.90;;;;;;5054682;28;20452;-69
2021/06/08 10:06:23;;;;;;;18.93;12.33;;;23.10;99.90;;;;;;5046756;28;20400;-68
2021/06/08 10:08:52;;;;;;;17.80;10.90;;;23.50;99.90;;;;;;5049010;28;20412;-68
2021/06/08 10:11:22;;;;;;;17.10;11.97;;;24.00;99.90;;;;;;5047452;28;20913;-69
2021/06/08 10:13:48;;;;;;;16.50;10.83;;;24.60;99.90;;;;;;5030234;28;20407;-68
2021/06/08 10:16:24;;;;;;;17.00;11.60;;;25.20;99.90;;;;;;5038294;28;20427;-70
2021/06/08 10:18:50;;;;;;;15.57;11.20;;;25.80;99.90;;;;;;5054723;28;20389;-72
2021/06/08 10:21:31;;;;;;;17.50;11.70;;;26.10;99.90;;;;;;5051576;28;20761;-73
2021/06/08 10:24:10;;;;;;;14.60;10.53;;;26.10;99.90;;;;;;5053515;28;20464;-71
2021/06/08 10:26:38;;;;;;;16.13;10.97;;;26.30;99.90;;;;;;5048533;28;20432;-74
2021/06/08 10:29:07;;;;;;;16.67;11.83;;;26.30;99.90;;;;;;5040075;28;20490;-71
2021/06/08 10:31:35;;;;;;;16.40;10.73;;;26.00;99.90;;;;;;5033367;28;20431;-71
2021/06/08 10:34:04;;;;;;;17.17;11.83;;;26.00;99.90;;;;;;5033906;28;20734;-72
2021/06/08 10:36:36;;;;;;;15.20;10.37;;;26.00;99.90;;;;;;5037871;28;20400;-73
2021/06/08 10:39:11;;;;;;;14.60;11.10;;;26.00;99.90;;;;;;5037662;28;20464;-69
2021/06/08 10:41:40;;;;;;;15.00;9.83;;;25.90;99.90;;;;;;5053764;28;20423;-70
2021/06/08 10:44:07;;;;;;;15.53;10.60;;;25.80;99.90;;;;;;5053879;28;21002;-69
2021/06/08 10:46:41;;;;;;;15.00;11.00;;;25.90;99.90;;;;;;5048386;28;20880;-68
2021/06/08 10:49:08;;;;;;;14.47;11.37;;;25.90;99.90;;;;;;5052516;28;20430;-71
2021/06/08 10:51:36;;;;;;;14.93;10.50;;;25.90;99.90;;;;;;5054418;28;20410;-74
2021/06/08 10:54:05;;;;;;;16.57;12.13;;;25.80;99.90;;;;;;5042618;28;20437;-72
2021/06/08 10:56:37;;;;;;;17.10;11.70;;;25.60;99.90;;;;;;5035593;28;20851;-75
2021/06/08 10:59:29;;;;;;;21.13;13.47;;;25.40;99.90;;;;;;5022481;28;20444;-73
2021/06/08 11:01:58;;;;;;;17.23;11.40;;;25.30;99.90;;;;;;5045579;28;20456;-72
2021/06/08 11:04:28;;;;;;;17.87;12.30;;;25.20;99.90;;;;;;5033641;28;20439;-71
2021/06/08 11:07:12;;;;;;;17.27;10.50;;;25.10;99.90;;;;;;5039653;28;20396;-70
2021/06/08 11:09:42;;;;;;;17.87;12.33;;;25.00;99.90;;;;;;5053650;28;20478;-76
2021/06/08 11:12:08;;;;;;;17.00;11.23;;;24.90;99.90;;;;;;5045960;28;20414;-73
2021/06/08 11:15:00;;;;;;;17.37;12.83;;;25.00;99.90;;;;;;5032480;28;20525;-73
2021/06/08 11:17:39;;;;;;;14.33;10.07;;;25.00;99.90;;;;;;5011752;28;20414;-72
2021/06/08 11:20:16;;;;;;;17.93;12.13;;;25.10;99.90;;;;;;4996358;28;20389;-74
2021/06/08 11:22:45;;;;;;;15.90;11.63;;;25.20;99.90;;;;;;5000985;28;20445;-74
2021/06/08 11:25:54;;;;;;;15.40;10.53;;;25.30;99.90;;;;;;5001993;28;20505;-72
2021/06/08 11:28:20;;;;;;;13.70;9.73;;;25.40;99.90;;;;;;4934306;29;20442;-69
2021/06/08 11:30:56;;;;;;;16.47;11.00;;;25.50;99.90;;;;;;4994775;28;20399;-67
2021/06/08 11:33:29;;;;;;;16.47;10.73;;;25.60;99.90;;;;;;4996049;28;20425;-69
2021/06/08 11:35:55;;;;;;;17.33;11.53;;;25.60;99.90;;;;;;4975559;28;20564;-69
2021/06/08 11:38:24;;;;;;;13.53;10.40;;;25.50;99.90;;;;;;4976004;28;20402;-69
2021/06/08 11:40:55;;;;;;;19.43;13.40;;;25.40;99.90;;;;;;4975643;28;20219;-72
2021/06/08 11:43:23;;;;;;;16.23;10.70;;;25.30;99.90;;;;;;5003926;28;20465;-72
2021/06/08 11:46:13;;;;;;;14.50;10.30;;;25.00;99.90;;;;;;5009262;28;20453;-71
2021/06/08 11:48:43;;;;;;;17.50;10.53;;;24.90;99.90;;;;;;4991566;28;20427;-72
2021/06/08 11:51:18;;;;;;;17.47;12.73;;;24.60;99.90;;;;;;5007664;28;20471;-71
2021/06/08 11:54:01;;;;;;;18.17;12.30;;;24.60;99.90;;;;;;5038233;28;20448;-71
2021/06/08 11:56:54;;;;;;;16.63;11.57;;;24.60;99.90;;;;;;5053799;28;20414;-71
2021/06/08 11:59:32;;;;;;;14.50;10.03;;;24.60;99.90;;;;;;5033006;28;20416;-73
2021/06/08 12:02:00;;;;;;;15.33;10.63;;;24.60;99.90;;;;;;5042582;28;20413;-71
2021/06/08 12:04:29;;;;;;;17.23;12.00;;;24.80;99.90;;;;;;5051368;28;20970;-72
2021/06/08 12:07:01;;;;;;;19.13;12.43;;;25.00;99.90;;;;;;5048880;28;20491;-71
2021/06/08 12:09:29;;;;;;;16.20;12.77;;;25.30;99.90;;;;;;5057898;28;20466;-72
2021/06/08 12:11:56;;;;;;;14.50;10.77;;;25.40;99.90;;;;;;5058364;28;20392;-72
2021/06/08 12:14:25;;;;;;;15.17;10.13;;;25.60;99.90;;;;;;5059235;28;20804;-72
2021/06/08 12:16:59;;;;;;;15.57;12.40;;;26.00;99.90;;;;;;5058750;28;20419;-71
2021/06/08 12:19:34;;;;;;;15.47;12.43;;;26.10;99.90;;;;;;5058083;28;20427;-71
2021/06/08 12:22:16;;;;;;;15.67;10.60;;;26.20;99.90;;;;;;5058625;28;20416;-71
2021/06/08 12:24:54;;;;;;;17.00;12.83;;;26.10;99.90;;;;;;5037942;28;20439;-71
2021/06/08 12:27:31;;;;;;;14.20;11.60;;;26.00;99.90;;;;;;5038355;28;20414;-71
2021/06/08 12:29:59;;;;;;;13.63;9.93;;;25.90;99.90;;;;;;5050481;28;20417;-71
2021/06/08 12:32:24;;;;;;;13.30;10.17;;;25.90;99.90;;;;;;5059194;28;20444;-71
2021/06/08 12:34:50;;;;;;;13.53;10.00;;;26.00;99.90;;;;;;5059029;28;20460;-71
2021/06/08 12:37:26;;;;;;;14.03;10.00;;;25.90;99.90;;;;;;5059475;28;20579;-73
2021/06/08 12:39:57;;;;;;;14.20;9.67;;;26.00;99.90;;;;;;5059401;28;20197;-70
2021/06/08 12:42:24;;;;;;;15.10;10.70;;;26.10;99.90;;;;;;5059319;28;20453;-70